Time;durP1;ratioP1;P1;durP2;ratioP2;P2;SDS_P1;SDS_P2;PMS_P1;PMS_P2;Temp;Humidity;BMP_temperature;BMP_pressure;BME280_temperature;BME280_humidity;BME280_pressure;Samples;Min_cycle;Max_cycle;Signal;HPM_P1;HPM_P2
2022/08/23 04:02:05;;;;;;;9.00;5.53;;;13.90;96.30;;;;;;5201985;23;20488;-78
2022/08/23 04:04:31;;;;;;;6.30;5.70;;;13.90;96.30;;;;;;4975703;28;20418;-78
2022/08/23 04:06:56;;;;;;;9.83;5.53;;;13.90;96.30;;;;;;4992174;28;20182;-77
2022/08/23 04:09:22;;;;;;;9.83;7.30;;;13.90;96.30;;;;;;4970132;28;20171;-75
2022/08/23 04:11:47;;;;;;;11.83;6.87;;;13.90;96.30;;;;;;4942325;29;20270;-76
2022/08/23 04:14:13;;;;;;;11.40;5.70;;;13.90;96.30;;;;;;4953857;29;20182;-77
2022/08/23 04:16:40;;;;;;;8.70;7.20;;;13.90;96.30;;;;;;4964147;29;20163;-76
2022/08/23 04:19:07;;;;;;;7.40;6.37;;;13.90;96.30;;;;;;4966937;29;20399;-75
2022/08/23 04:21:35;;;;;;;12.17;6.03;;;13.90;96.30;;;;;;4960354;28;20529;-75
2022/08/23 04:24:01;;;;;;;10.70;5.83;;;13.80;96.30;;;;;;4936635;29;20533;-78
2022/08/23 04:26:26;;;;;;;10.70;5.80;;;13.80;96.30;;;;;;4953552;29;20890;-74
2022/08/23 04:28:52;;;;;;;8.97;5.80;;;13.80;96.30;;;;;;4953866;29;20229;-75
2022/08/23 04:44:40;;;;;;;7.07;6.03;;;13.60;96.30;;;;;;5455288;23;20492;-77
2022/08/23 04:47:06;;;;;;;8.03;6.10;;;13.60;96.30;;;;;;4954931;28;20425;-77
2022/08/23 04:49:32;;;;;;;20.53;6.43;;;13.60;96.30;;;;;;4971670;28;20546;-77
2022/08/23 04:51:57;;;;;;;9.60;5.90;;;13.60;96.30;;;;;;4971976;28;20206;-77
2022/08/23 04:54:23;;;;;;;9.20;5.90;;;13.60;96.30;;;;;;4972694;28;20422;-77
2022/08/23 04:56:48;;;;;;;7.57;5.47;;;13.60;96.30;;;;;;4955351;28;20229;-77
2022/08/23 04:59:14;;;;;;;6.43;5.17;;;13.60;96.30;;;;;;4973973;28;20170;-77
2022/08/23 05:01:41;;;;;;;16.27;5.97;;;13.60;96.30;;;;;;4976073;28;20294;-77
2022/08/23 05:04:07;;;;;;;9.67;6.23;;;13.50;96.30;;;;;;4976048;28;20261;-77
2022/08/23 05:06:32;;;;;;;8.47;5.57;;;13.50;96.30;;;;;;4975996;28;20607;-77
2022/08/23 05:08:59;;;;;;;6.27;5.67;;;13.50;96.30;;;;;;4971925;28;20691;-77
2022/08/23 05:11:24;;;;;;;11.30;6.10;;;13.50;96.30;;;;;;4956448;29;20213;-77
2022/08/23 05:13:50;;;;;;;5.70;5.20;;;13.60;96.30;;;;;;4956562;28;20414;-77
2022/08/23 05:16:16;;;;;;;9.70;5.97;;;13.50;96.30;;;;;;4964166;28;20177;-77
2022/08/23 05:18:41;;;;;;;7.83;6.27;;;13.60;96.30;;;;;;4963401;28;20175;-77
2022/08/23 05:21:07;;;;;;;7.77;5.53;;;13.60;96.30;;;;;;4960092;28;20441;-77
2022/08/23 05:23:33;;;;;;;5.90;4.97;;;13.50;96.30;;;;;;4962792;28;20187;-79
2022/08/23 05:25:59;;;;;;;6.50;5.40;;;13.60;96.30;;;;;;4956359;28;20171;-78
2022/08/23 05:28:31;;;;;;;5.87;5.37;;;13.60;96.30;;;;;;4966422;28;20202;-79
2022/08/23 05:31:07;;;;;;;8.83;6.03;;;13.70;96.30;;;;;;4958129;28;20552;-78
2022/08/23 05:33:33;;;;;;;10.60;5.67;;;13.60;96.30;;;;;;4975570;28;20429;-79
2022/08/23 05:36:03;;;;;;;6.03;5.40;;;13.60;96.30;;;;;;4958120;28;20414;-78
2022/08/23 05:38:29;;;;;;;7.00;5.10;;;13.60;96.30;;;;;;4943464;28;20425;-79
2022/08/23 05:40:56;;;;;;;10.17;6.00;;;13.60;96.30;;;;;;4961657;28;20454;-79
2022/08/23 05:43:23;;;;;;;5.70;5.20;;;13.60;96.30;;;;;;4966880;28;20281;-78
2022/08/23 05:46:03;;;;;;;9.87;6.03;;;13.60;96.30;;;;;;4960940;28;20419;-79
2022/08/23 05:48:28;;;;;;;5.90;5.40;;;13.70;96.30;;;;;;4957547;28;20410;-80
2022/08/23 05:50:54;;;;;;;9.27;5.20;;;13.70;96.30;;;;;;4939543;28;20517;-79
2022/08/23 05:53:19;;;;;;;8.10;5.73;;;13.70;96.30;;;;;;4945123;29;20175;-81
2022/08/23 05:55:45;;;;;;;7.33;5.67;;;13.70;96.30;;;;;;4954184;28;20408;-79
2022/08/23 05:58:10;;;;;;;8.13;5.10;;;13.70;96.30;;;;;;4952327;29;20183;-79
2022/08/23 06:00:36;;;;;;;10.87;5.77;;;13.80;96.30;;;;;;4958216;28;20203;-79
2022/08/23 06:03:02;;;;;;;8.73;5.97;;;13.80;96.30;;;;;;4961137;28;20650;-77
2022/08/23 06:05:28;;;;;;;9.20;5.73;;;13.80;96.30;;;;;;4965147;28;20178;-77
2022/08/23 06:07:53;;;;;;;5.23;4.73;;;13.80;96.30;;;;;;4962683;28;20784;-77
2022/08/23 06:10:20;;;;;;;8.13;5.60;;;13.80;96.30;;;;;;4968705;28;20539;-76
2022/08/23 06:12:46;;;;;;;7.53;5.20;;;13.90;96.30;;;;;;4974451;28;20321;-76
2022/08/23 06:15:12;;;;;;;5.70;5.10;;;13.90;96.30;;;;;;4974571;28;20410;-76
2022/08/23 06:17:37;;;;;;;6.43;5.17;;;13.90;96.30;;;;;;4974519;28;20459;-76
2022/08/23 06:20:04;;;;;;;7.30;5.60;;;13.90;96.30;;;;;;4973989;28;20170;-76
2022/08/23 06:22:30;;;;;;;5.57;5.00;;;13.90;96.30;;;;;;4974514;28;20186;-76
2022/08/23 06:24:55;;;;;;;7.07;5.60;;;14.00;96.30;;;;;;4974446;28;20406;-76
2022/08/23 06:27:21;;;;;;;18.47;4.60;;;14.10;96.30;;;;;;4957077;28;20630;-76
2022/08/23 06:29:47;;;;;;;5.03;4.53;;;14.10;96.30;;;;;;4973852;28;20172;-75
2022/08/23 06:32:13;;;;;;;6.80;5.00;;;14.10;96.30;;;;;;4974172;28;20235;-76
2022/08/23 06:34:39;;;;;;;6.60;5.70;;;14.10;96.30;;;;;;4974206;28;20448;-76
2022/08/23 06:37:10;;;;;;;5.70;4.97;;;14.20;96.30;;;;;;4973821;28;20249;-77
2022/08/23 06:39:37;;;;;;;8.47;5.33;;;14.20;96.30;;;;;;4973692;28;20158;-77
2022/08/23 06:42:09;;;;;;;5.47;5.03;;;14.10;96.30;;;;;;4955422;28;20434;-76
2022/08/23 06:44:35;;;;;;;6.07;5.00;;;14.10;96.30;;;;;;4954498;29;20482;-79
2022/08/23 06:47:03;;;;;;;7.23;5.40;;;14.10;96.30;;;;;;4961681;29;20422;-79
2022/08/23 06:49:31;;;;;;;5.73;5.13;;;14.20;96.30;;;;;;4945224;28;20266;-78
2022/08/23 06:51:59;;;;;;;9.03;5.47;;;14.20;96.30;;;;;;4965378;28;20469;-76
2022/08/23 06:54:30;;;;;;;6.97;5.77;;;14.20;96.30;;;;;;4959407;28;20430;-78
2022/08/23 06:56:56;;;;;;;5.70;5.20;;;14.30;96.30;;;;;;4953800;29;20442;-78
2022/08/23 06:59:22;;;;;;;6.83;5.50;;;14.30;96.30;;;;;;4953999;29;20445;-78
2022/08/23 07:01:51;;;;;;;8.97;5.63;;;14.40;96.30;;;;;;4954470;29;20253;-77
2022/08/23 07:04:20;;;;;;;10.10;5.97;;;14.60;96.30;;;;;;4954415;29;20202;-78
2022/08/23 07:06:46;;;;;;;6.00;5.40;;;14.70;96.30;;;;;;4954568;29;20509;-78
2022/08/23 07:09:12;;;;;;;7.60;5.90;;;14.80;96.30;;;;;;4959124;28;20905;-77
2022/08/23 07:11:38;;;;;;;7.67;6.30;;;14.80;96.30;;;;;;4973452;28;20225;-75
2022/08/23 07:14:07;;;;;;;5.83;5.30;;;14.90;96.30;;;;;;4973749;28;20413;-75
2022/08/23 07:16:36;;;;;;;7.47;6.63;;;15.00;96.30;;;;;;4973597;28;20181;-78
2022/08/23 07:19:02;;;;;;;9.00;6.13;;;15.20;96.30;;;;;;4973283;28;20410;-75
2022/08/23 07:21:28;;;;;;;7.20;6.57;;;15.20;96.30;;;;;;4972667;28;20429;-75
2022/08/23 07:23:54;;;;;;;8.33;6.27;;;15.30;96.30;;;;;;4973655;28;20846;-75
2022/08/23 07:26:21;;;;;;;9.43;6.03;;;15.30;96.30;;;;;;4973424;28;20413;-78
2022/08/23 07:28:47;;;;;;;8.53;6.80;;;15.30;96.30;;;;;;4973407;28;20184;-75
2022/08/23 07:31:17;;;;;;;7.77;6.00;;;15.30;96.30;;;;;;4973413;28;20823;-74
2022/08/23 07:33:43;;;;;;;10.00;5.43;;;15.40;96.30;;;;;;4956165;28;20205;-74
2022/08/23 07:36:11;;;;;;;6.40;5.70;;;15.40;96.30;;;;;;4973502;28;20890;-74
2022/08/23 07:38:37;;;;;;;7.90;6.10;;;15.50;96.30;;;;;;4973231;28;20771;-74
2022/08/23 07:41:03;;;;;;;15.10;6.33;;;15.50;96.30;;;;;;4963619;28;20438;-75
2022/08/23 07:43:31;;;;;;;11.00;6.73;;;15.60;96.30;;;;;;4954054;29;20188;-76
2022/08/23 07:45:57;;;;;;;8.13;6.90;;;15.70;96.30;;;;;;4954067;29;20406;-74
2022/08/23 07:48:23;;;;;;;12.27;6.10;;;15.60;96.30;;;;;;4953840;29;20965;-75
2022/08/23 07:50:57;;;;;;;14.63;7.93;;;15.70;96.30;;;;;;4954011;29;20210;-77
2022/08/23 07:53:24;;;;;;;11.87;5.70;;;15.80;96.30;;;;;;4954117;29;20159;-74
2022/08/23 07:55:51;;;;;;;13.70;6.67;;;15.90;96.30;;;;;;4953837;29;20411;-74
2022/08/23 07:58:16;;;;;;;10.80;7.47;;;16.00;96.30;;;;;;4953728;29;20422;-74
2022/08/23 08:00:42;;;;;;;7.43;6.70;;;16.20;96.30;;;;;;4953965;29;20442;-74
2022/08/23 08:03:09;;;;;;;9.70;6.87;;;16.40;96.30;;;;;;4953996;29;20310;-74
2022/08/23 08:05:35;;;;;;;12.00;7.10;;;16.50;96.30;;;;;;4953892;29;20266;-74
2022/08/23 08:08:02;;;;;;;11.30;6.20;;;16.60;96.30;;;;;;4953679;29;20976;-75
2022/08/23 08:10:28;;;;;;;8.40;6.77;;;16.70;96.30;;;;;;4953534;29;20466;-74
2022/08/23 08:12:53;;;;;;;12.30;6.97;;;16.80;96.30;;;;;;4953865;29;20411;-75
2022/08/23 08:15:21;;;;;;;6.20;5.60;;;16.80;96.30;;;;;;4953820;29;20163;-74
2022/08/23 08:17:48;;;;;;;9.40;6.53;;;16.80;96.30;;;;;;4953571;29;20182;-80
2022/08/23 08:20:14;;;;;;;9.13;5.83;;;16.80;96.30;;;;;;4953668;29;20473;-75
2022/08/23 08:22:40;;;;;;;7.23;6.37;;;16.90;96.30;;;;;;4953787;29;20474;-75
2022/08/23 08:25:07;;;;;;;8.47;6.13;;;17.10;96.30;;;;;;4953619;28;20497;-74
2022/08/23 08:27:32;;;;;;;10.23;6.43;;;17.30;96.30;;;;;;4953877;29;20406;-74
2022/08/23 08:29:57;;;;;;;12.23;7.90;;;17.60;96.30;;;;;;4953593;29;20990;-76
2022/08/23 08:32:23;;;;;;;8.93;7.60;;;17.90;96.30;;;;;;4954344;28;20214;-74
2022/08/23 08:34:49;;;;;;;12.40;6.90;;;18.60;96.30;;;;;;4957298;29;20177;-74
2022/08/23 08:37:14;;;;;;;12.90;6.30;;;19.40;96.30;;;;;;4957305;29;20205;-74
2022/08/23 08:39:44;;;;;;;8.30;6.00;;;19.50;96.30;;;;;;4957001;29;20650;-74
2022/08/23 08:42:40;;;;;;;11.37;5.73;;;19.80;96.30;;;;;;4975845;28;20194;-74
2022/08/23 08:45:14;;;;;;;6.60;5.33;;;20.00;96.30;;;;;;4976699;28;20429;-75
2022/08/23 08:48:01;;;;;;;11.70;5.33;;;20.50;96.30;;;;;;4959374;28;20422;-76
2022/08/23 08:50:36;;;;;;;7.30;5.10;;;20.00;96.30;;;;;;4967566;28;20460;-78
2022/08/23 08:53:39;;;;;;;8.03;5.13;;;20.20;96.30;;;;;;4966797;28;20913;-77
2022/08/23 08:56:23;;;;;;;7.30;4.40;;;20.40;96.30;;;;;;4947513;28;20839;-77
2022/08/23 08:58:57;;;;;;;9.57;4.80;;;20.20;96.30;;;;;;4966486;28;20418;-76
2022/08/23 09:01:25;;;;;;;5.97;4.60;;;19.90;96.30;;;;;;4965192;28;21024;-76
2022/08/23 09:03:50;;;;;;;5.37;4.90;;;20.00;96.30;;;;;;4965322;28;20436;-76
2022/08/23 09:06:42;;;;;;;8.57;4.93;;;20.60;96.30;;;;;;4966691;28;21102;-77
2022/08/23 09:09:45;;;;;;;9.83;5.23;;;20.90;96.30;;;;;;4969471;28;20186;-77
2022/08/23 09:12:38;;;;;;;6.10;4.20;;;21.30;96.30;;;;;;4956363;29;20466;-78
2022/08/23 09:15:17;;;;;;;7.23;5.27;;;21.50;96.30;;;;;;4956523;29;20415;-76
2022/08/23 09:17:54;;;;;;;5.33;4.63;;;21.90;96.30;;;;;;4956221;29;20403;-77
2022/08/23 09:20:22;;;;;;;7.80;4.43;;;21.90;96.30;;;;;;4956234;29;20406;-77
2022/08/23 09:23:09;;;;;;;7.73;5.17;;;22.70;96.30;;;;;;4969361;28;20445;-75
2022/08/23 09:25:35;;;;;;;5.40;3.40;;;23.80;96.30;;;;;;4964188;28;20406;-78
2022/08/23 09:28:01;;;;;;;7.10;3.57;;;23.60;96.30;;;;;;4963846;28;20925;-77
2022/08/23 09:30:52;;;;;;;6.97;3.53;;;23.70;96.30;;;;;;4964842;28;20211;-76
2022/08/23 09:33:24;;;;;;;6.40;3.10;;;24.10;96.30;;;;;;4963490;28;20447;-76
2022/08/23 09:36:24;;;;;;;4.07;2.90;;;24.90;96.30;;;;;;4969246;28;20484;-78
2022/08/23 09:38:52;;;;;;;3.47;2.67;;;25.50;96.30;;;;;;4938812;29;20470;-77
2022/08/23 09:41:23;;;;;;;3.53;2.60;;;24.80;96.30;;;;;;4968766;28;20445;-78
2022/08/23 09:43:51;;;;;;;7.20;2.90;;;24.30;96.30;;;;;;4974264;28;20430;-77
2022/08/23 09:46:29;;;;;;;3.83;2.80;;;23.20;96.30;;;;;;4975126;28;20417;-78
2022/08/23 09:48:57;;;;;;;8.40;2.63;;;22.80;96.30;;;;;;4974711;28;20413;-77
2022/08/23 09:51:50;;;;;;;5.93;3.13;;;22.70;96.30;;;;;;4974784;28;20873;-77
2022/08/23 09:54:20;;;;;;;5.87;2.13;;;22.80;96.30;;;;;;4987261;28;20487;-76
2022/08/23 09:56:52;;;;;;;6.03;2.07;;;22.80;96.30;;;;;;4994252;28;20519;-77
2022/08/23 09:59:37;;;;;;;11.67;3.20;;;22.70;96.30;;;;;;4994151;28;20443;-77
2022/08/23 10:02:02;;;;;;;3.10;1.80;;;22.40;96.30;;;;;;4994331;28;20432;-77
2022/08/23 10:04:40;;;;;;;4.30;1.83;;;22.50;96.30;;;;;;4962777;28;20421;-77
2022/08/23 10:07:24;;;;;;;4.77;2.53;;;23.30;96.30;;;;;;4970197;28;20190;-77
2022/08/23 10:09:50;;;;;;;5.53;1.87;;;23.00;96.30;;;;;;4946998;29;20434;-76
2022/08/23 10:12:15;;;;;;;4.60;1.90;;;22.70;96.30;;;;;;4937982;29;20478;-76
2022/08/23 10:14:41;;;;;;;2.00;1.80;;;23.20;96.30;;;;;;4938454;29;20694;-77
2022/08/23 10:17:32;;;;;;;7.33;2.30;;;23.90;96.30;;;;;;4955180;29;20174;-77
2022/08/23 10:20:13;;;;;;;9.30;2.27;;;23.00;96.30;;;;;;4954971;29;20411;-76
2022/08/23 10:22:44;;;;;;;4.80;2.17;;;22.80;96.30;;;;;;4955201;29;20402;-76
2022/08/23 10:25:20;;;;;;;6.37;1.90;;;23.00;96.30;;;;;;4955110;29;20842;-77
2022/08/23 10:31:14;;;;;;;2.73;1.70;;;23.10;96.30;;;;;;4962520;28;20473;-76
2022/08/23 10:34:31;;;;;;;6.37;2.37;;;23.20;96.30;;;;;;4956602;29;20415;-76
2022/08/23 10:37:08;;;;;;;6.47;2.40;;;23.40;96.30;;;;;;4938009;29;20458;-76
2022/08/23 10:39:44;;;;;;;3.77;1.90;;;23.20;96.30;;;;;;4940546;28;20428;-76
2022/08/23 10:42:31;;;;;;;8.63;2.20;;;22.90;96.30;;;;;;4963680;28;20437;-76
2022/08/23 10:45:05;;;;;;;7.50;1.97;;;22.70;96.30;;;;;;4955549;28;20964;-75
2022/08/23 10:47:44;;;;;;;5.37;1.97;;;22.60;96.30;;;;;;4956628;29;20422;-77
2022/08/23 10:50:18;;;;;;;5.00;1.70;;;22.60;96.30;;;;;;4957773;29;20414;-77
2022/08/23 10:53:00;;;;;;;4.47;1.60;;;22.60;96.30;;;;;;4957609;29;20951;-77
2022/08/23 10:55:53;;;;;;;8.13;2.00;;;23.20;96.30;;;;;;4948735;28;20424;-78
2022/08/23 10:58:24;;;;;;;5.27;1.90;;;23.80;96.30;;;;;;4990779;28;20499;-78
2022/08/23 11:00:52;;;;;;;4.40;2.20;;;23.20;96.30;;;;;;4993001;28;20912;-78
2022/08/23 11:03:25;;;;;;;4.37;1.87;;;23.40;96.30;;;;;;4997010;28;20503;-78
2022/08/23 11:06:43;;;;;;;4.37;1.77;;;23.90;96.30;;;;;;5003165;28;20413;-77
2022/08/23 11:09:17;;;;;;;3.23;1.50;;;23.40;96.30;;;;;;4963673;28;20862;-75
2022/08/23 11:11:48;;;;;;;4.33;1.40;;;24.00;96.30;;;;;;4961755;28;20803;-77
2022/08/23 11:14:37;;;;;;;7.70;1.70;;;23.30;96.30;;;;;;4963745;28;20481;-74
2022/08/23 11:17:07;;;;;;;4.53;1.70;;;23.60;96.30;;;;;;4964428;28;20414;-75
2022/08/23 11:19:47;;;;;;;5.13;1.70;;;23.80;96.30;;;;;;4945879;28;20434;-74
2022/08/23 11:27:56;;;;;;;5.90;2.00;;;23.70;96.30;;;;;;4971350;28;20564;-73
2022/08/23 11:31:00;;;;;;;3.40;1.37;;;23.60;96.30;;;;;;4938726;28;20497;-75
2022/08/23 11:33:58;;;;;;;3.70;1.80;;;23.20;96.30;;;;;;4970422;28;20409;-73
2022/08/23 11:42:47;;;;;;;1.87;1.50;;;23.10;96.30;;;;;;5182265;23;21015;-74
2022/08/23 11:45:41;;;;;;;3.70;1.57;;;23.10;96.30;;;;;;4992285;28;21056;-73
2022/08/23 11:48:18;;;;;;;3.67;1.90;;;23.20;96.30;;;;;;4989852;28;20784;-74
2022/08/23 11:50:49;;;;;;;4.73;1.80;;;23.30;96.30;;;;;;4970701;28;20476;-74
2022/08/23 11:53:53;;;;;;;1.73;1.23;;;23.60;96.30;;;;;;4955911;28;20910;-75
2022/08/23 11:56:45;;;;;;;4.10;1.50;;;23.30;96.30;;;;;;4909150;28;20421;-74
2022/08/23 11:59:39;;;;;;;2.57;1.47;;;23.30;96.30;;;;;;4973223;28;20454;-74
2022/08/23 12:02:46;;;;;;;2.00;1.30;;;23.30;96.30;;;;;;5207838;23;20568;-74
2022/08/23 12:05:16;;;;;;;2.70;1.50;;;22.90;96.30;;;;;;4973247;28;20420;-76
2022/08/23 12:07:53;;;;;;;4.17;1.70;;;22.80;96.30;;;;;;4974399;28;20917;-75
2022/08/23 12:10:41;;;;;;;4.30;1.40;;;23.00;96.30;;;;;;4977370;28;20561;-73
2022/08/23 12:13:21;;;;;;;3.30;1.57;;;22.70;96.30;;;;;;4977070;28;20405;-73
2022/08/23 12:16:10;;;;;;;3.83;1.23;;;22.90;96.30;;;;;;4972446;28;20473;-73
2022/08/23 12:18:42;;;;;;;3.10;1.40;;;23.00;96.30;;;;;;4957083;29;20410;-73
2022/08/23 12:21:15;;;;;;;7.93;1.63;;;23.40;96.30;;;;;;4957246;29;20802;-73
2022/08/23 12:23:43;;;;;;;4.00;1.60;;;23.50;96.30;;;;;;4957484;29;20418;-73
2022/08/23 12:26:21;;;;;;;4.33;1.73;;;23.30;96.30;;;;;;4956967;29;20425;-73
2022/08/23 12:28:51;;;;;;;2.80;1.50;;;22.90;96.30;;;;;;4938019;29;20411;-73
2022/08/23 12:31:47;;;;;;;12.67;2.00;;;23.10;96.30;;;;;;4937911;29;20466;-74
2022/08/23 12:34:16;;;;;;;9.50;2.00;;;23.20;96.30;;;;;;4938152;29;20784;-74
2022/08/23 12:36:41;;;;;;;4.10;1.90;;;22.90;96.30;;;;;;4937823;29;20411;-74
2022/08/23 12:39:23;;;;;;;5.17;1.70;;;23.10;96.30;;;;;;4920631;29;20494;-74
2022/08/23 12:41:58;;;;;;;4.17;1.30;;;22.90;96.30;;;;;;4955567;28;20249;-75
2022/08/23 12:44:27;;;;;;;3.43;1.60;;;22.80;96.30;;;;;;4955549;29;20410;-74
2022/08/23 12:46:53;;;;;;;3.53;1.53;;;22.90;96.30;;;;;;4956117;29;20441;-74
2022/08/23 12:49:31;;;;;;;5.30;1.50;;;23.10;96.30;;;;;;4956238;29;20906;-74
2022/08/23 12:52:00;;;;;;;4.20;1.50;;;22.80;96.30;;;;;;4955889;29;20461;-74
2022/08/23 12:54:36;;;;;;;2.83;1.43;;;22.80;96.30;;;;;;4956881;29;20442;-74
2022/08/23 12:57:08;;;;;;;5.00;1.83;;;22.20;96.30;;;;;;4956925;29;20417;-74
2022/08/23 12:59:43;;;;;;;5.23;1.70;;;22.40;96.30;;;;;;4956274;29;20522;-74
2022/08/23 13:02:23;;;;;;;3.73;1.60;;;22.50;96.30;;;;;;4956633;29;20450;-74
2022/08/23 13:04:49;;;;;;;3.90;1.40;;;22.80;96.30;;;;;;4956757;29;20418;-74
2022/08/23 13:07:20;;;;;;;2.30;1.37;;;22.90;96.30;;;;;;4956728;29;20419;-74
2022/08/23 13:09:46;;;;;;;4.30;1.53;;;23.10;96.30;;;;;;4966036;28;21111;-74
2022/08/23 13:12:14;;;;;;;3.37;1.63;;;23.00;96.30;;;;;;4975852;28;20449;-74
2022/08/23 13:14:40;;;;;;;6.50;1.70;;;22.90;96.30;;;;;;4975878;28;20425;-74
2022/08/23 13:17:23;;;;;;;2.87;1.50;;;23.00;96.30;;;;;;4975798;28;20406;-74
2022/08/23 13:19:52;;;;;;;8.93;2.50;;;23.20;96.30;;;;;;4989217;28;20198;-74
2022/08/23 13:22:18;;;;;;;2.57;1.43;;;23.30;96.30;;;;;;4975857;28;20783;-74
2022/08/23 13:25:05;;;;;;;2.00;1.33;;;23.40;96.30;;;;;;4975663;28;20421;-74
2022/08/23 13:27:30;;;;;;;2.50;1.30;;;23.60;96.30;;;;;;4975919;28;20582;-75
2022/08/23 13:30:18;;;;;;;3.37;1.50;;;23.70;96.30;;;;;;4975494;28;20514;-74
2022/08/23 13:32:47;;;;;;;8.30;1.77;;;23.70;96.30;;;;;;4975583;28;20171;-74
2022/08/23 13:35:37;;;;;;;2.00;1.33;;;23.70;96.30;;;;;;4975359;28;20417;-74
2022/08/23 13:38:18;;;;;;;3.60;1.50;;;23.40;96.30;;;;;;4975229;28;20441;-74
2022/08/23 13:41:05;;;;;;;5.77;1.67;;;23.10;96.30;;;;;;4968214;28;20438;-74
2022/08/23 13:43:42;;;;;;;5.33;1.60;;;22.70;96.30;;;;;;4956059;29;20421;-74
2022/08/23 13:46:21;;;;;;;6.03;2.17;;;22.70;96.30;;;;;;4956018;29;20414;-74
2022/08/23 13:48:57;;;;;;;6.07;1.60;;;22.60;96.30;;;;;;4938368;29;20422;-74
2022/08/23 13:51:32;;;;;;;3.00;1.73;;;22.10;96.30;;;;;;4955833;29;20493;-74
2022/08/23 13:54:00;;;;;;;5.20;1.63;;;22.90;96.30;;;;;;4955885;29;20442;-76
2022/08/23 13:56:28;;;;;;;2.97;2.20;;;23.50;96.30;;;;;;4955687;29;20422;-75
2022/08/23 13:59:00;;;;;;;5.00;1.77;;;23.60;96.30;;;;;;4938289;29;20410;-75
2022/08/23 14:01:26;;;;;;;3.33;1.60;;;24.60;96.30;;;;;;4955591;29;20457;-75
2022/08/23 14:03:52;;;;;;;2.47;1.80;;;24.40;96.30;;;;;;4955665;29;20421;-75
2022/08/23 14:06:18;;;;;;;4.90;1.73;;;24.30;96.30;;;;;;4955592;29;20411;-75
2022/08/23 14:08:44;;;;;;;11.03;2.07;;;24.10;96.30;;;;;;4956654;28;20261;-75
2022/08/23 14:11:11;;;;;;;6.80;2.30;;;24.10;96.30;;;;;;4974649;28;20556;-75
2022/08/23 14:13:37;;;;;;;2.20;1.70;;;24.10;96.30;;;;;;4974870;28;20649;-75
2022/08/23 14:16:06;;;;;;;2.30;2.03;;;24.30;96.30;;;;;;4974757;28;20433;-75
2022/08/23 14:18:33;;;;;;;4.17;1.83;;;23.60;96.30;;;;;;4974471;28;20278;-75
2022/08/23 14:20:59;;;;;;;8.10;2.20;;;23.50;96.30;;;;;;4974452;28;20442;-75
2022/08/23 14:23:24;;;;;;;3.57;1.83;;;23.10;96.30;;;;;;4974750;28;20421;-74
2022/08/23 14:25:53;;;;;;;4.57;1.97;;;23.30;96.30;;;;;;4974698;28;20181;-75
2022/08/23 14:28:19;;;;;;;2.10;1.87;;;23.10;96.30;;;;;;4974380;28;20171;-75
2022/08/23 14:30:46;;;;;;;3.20;2.03;;;22.80;96.30;;;;;;4958250;28;20497;-75
2022/08/23 14:33:12;;;;;;;7.67;2.03;;;22.80;96.30;;;;;;4954559;29;20517;-75
2022/08/23 14:35:38;;;;;;;8.53;1.90;;;23.10;96.30;;;;;;4954953;29;20505;-76
2022/08/23 14:38:03;;;;;;;2.40;1.70;;;22.80;96.30;;;;;;4937369;29;20238;-75
2022/08/23 14:40:29;;;;;;;3.70;2.10;;;22.90;96.30;;;;;;4961309;28;20698;-75
2022/08/23 14:42:54;;;;;;;6.07;2.10;;;22.70;96.30;;;;;;4963996;28;20178;-74
2022/08/23 14:45:20;;;;;;;3.33;2.07;;;22.60;96.30;;;;;;4954842;29;20654;-75
2022/08/23 14:47:46;;;;;;;4.53;2.00;;;22.60;96.30;;;;;;4954786;29;20257;-75
2022/08/23 14:50:13;;;;;;;2.90;1.70;;;22.80;96.30;;;;;;4954576;29;20832;-75
2022/08/23 14:52:42;;;;;;;7.83;2.07;;;22.40;96.30;;;;;;4954821;29;20574;-75
2022/08/23 14:55:08;;;;;;;4.13;2.60;;;22.20;96.30;;;;;;4954643;29;20486;-75
2022/08/23 14:57:34;;;;;;;5.03;2.60;;;22.00;96.30;;;;;;4954926;29;20410;-75
2022/08/23 15:00:00;;;;;;;5.33;2.37;;;21.90;96.30;;;;;;4954504;29;20410;-75
2022/08/23 15:02:27;;;;;;;7.30;2.30;;;21.80;96.30;;;;;;4954498;29;20278;-75
2022/08/23 15:04:54;;;;;;;9.77;3.20;;;21.70;96.30;;;;;;4954387;29;20175;-76
2022/08/23 15:07:20;;;;;;;5.13;2.17;;;21.90;96.30;;;;;;4935417;29;20422;-75
2022/08/23 15:09:47;;;;;;;7.97;2.93;;;21.70;96.30;;;;;;4953909;28;20837;-75
2022/08/23 15:12:13;;;;;;;15.93;3.10;;;21.60;96.30;;;;;;4973655;28;20204;-75
2022/08/23 15:14:39;;;;;;;13.83;2.70;;;21.50;96.30;;;;;;4974048;28;20807;-75
2022/08/23 15:17:06;;;;;;;5.00;2.87;;;21.40;96.30;;;;;;4973633;28;20409;-74
2022/08/23 15:19:32;;;;;;;3.20;2.30;;;21.30;96.30;;;;;;4973297;28;20233;-75
2022/08/23 15:21:58;;;;;;;7.53;3.17;;;21.20;96.30;;;;;;4973631;28;20438;-75
2022/08/23 15:24:24;;;;;;;4.13;2.43;;;21.20;96.30;;;;;;4973637;28;20249;-75
2022/08/23 15:26:49;;;;;;;4.83;2.77;;;21.00;96.30;;;;;;4972762;28;20501;-76
2022/08/23 15:29:15;;;;;;;12.37;2.87;;;21.00;96.30;;;;;;4953809;29;20183;-73
2022/08/23 15:31:40;;;;;;;7.13;3.00;;;20.80;96.30;;;;;;4954175;29;20210;-73
2022/08/23 15:34:06;;;;;;;8.60;2.57;;;20.80;96.30;;;;;;4954240;29;20163;-73
2022/08/23 15:36:38;;;;;;;3.07;2.40;;;20.90;96.30;;;;;;4954149;29;20262;-73
2022/08/23 15:39:04;;;;;;;2.90;2.13;;;20.90;96.30;;;;;;4953697;29;20403;-74
2022/08/23 15:41:30;;;;;;;4.47;2.00;;;21.00;96.30;;;;;;4966904;28;20445;-75
2022/08/23 15:43:55;;;;;;;5.97;3.00;;;21.00;96.30;;;;;;4973253;28;20253;-72
2022/08/23 15:46:22;;;;;;;3.90;2.50;;;21.10;96.30;;;;;;4973393;28;20182;-73
2022/08/23 15:48:56;;;;;;;4.60;2.50;;;21.10;96.30;;;;;;4955563;28;20638;-73
2022/08/23 15:51:22;;;;;;;7.93;2.60;;;20.90;96.30;;;;;;4953906;29;20989;-73
2022/08/23 15:53:48;;;;;;;7.23;3.03;;;21.20;96.30;;;;;;4954202;29;20791;-76
2022/08/23 15:56:20;;;;;;;7.07;2.80;;;21.30;96.30;;;;;;4953939;29;20411;-74
2022/08/23 15:58:46;;;;;;;4.77;2.57;;;21.30;96.30;;;;;;4953774;29;20162;-73
2022/08/23 16:01:12;;;;;;;6.90;2.13;;;21.30;96.30;;;;;;4953919;29;20601;-73
2022/08/23 16:03:41;;;;;;;5.63;2.70;;;21.20;96.30;;;;;;4954144;29;20485;-73
2022/08/23 16:06:09;;;;;;;9.57;3.30;;;21.10;96.30;;;;;;4953972;29;20254;-73
2022/08/23 16:08:37;;;;;;;6.60;2.40;;;21.20;96.30;;;;;;4953719;29;20411;-73
2022/08/23 16:11:09;;;;;;;4.37;2.40;;;21.30;96.30;;;;;;4953769;29;20548;-73
2022/08/23 16:13:34;;;;;;;7.27;2.57;;;21.20;96.30;;;;;;4953823;29;20450;-73
2022/08/23 16:16:01;;;;;;;7.70;2.80;;;21.30;96.30;;;;;;4954167;29;20450;-73
2022/08/23 16:18:27;;;;;;;12.00;3.00;;;21.30;96.30;;;;;;4954067;29;20182;-73
2022/08/23 16:20:52;;;;;;;9.63;2.87;;;21.30;96.30;;;;;;4956070;28;20446;-72
2022/08/23 16:23:18;;;;;;;3.33;2.47;;;21.30;96.30;;;;;;4953899;29;20254;-73
2022/08/23 16:25:43;;;;;;;5.30;2.50;;;21.20;96.30;;;;;;4936831;29;20190;-76
2022/08/23 16:28:09;;;;;;;5.13;2.40;;;21.30;96.30;;;;;;4953789;29;20187;-73
2022/08/23 16:30:34;;;;;;;6.60;2.20;;;21.30;96.30;;;;;;4953760;29;20211;-74
2022/08/23 16:33:00;;;;;;;6.33;2.77;;;21.20;96.30;;;;;;4953808;29;20273;-72
2022/08/23 16:35:26;;;;;;;5.23;2.67;;;21.10;96.30;;;;;;4954103;29;20609;-74
2022/08/23 16:37:53;;;;;;;5.13;2.50;;;21.10;96.30;;;;;;4936391;29;20287;-72
2022/08/23 16:40:18;;;;;;;7.50;2.57;;;21.00;96.30;;;;;;4934879;29;20182;-72
2022/08/23 16:42:44;;;;;;;9.27;2.47;;;21.00;96.30;;;;;;4933460;29;20424;-74
2022/08/23 16:45:10;;;;;;;6.07;2.60;;;20.90;96.30;;;;;;4934554;29;20183;-73
2022/08/23 16:47:41;;;;;;;7.67;2.67;;;20.80;96.30;;;;;;4934486;29;20679;-73
2022/08/23 16:50:08;;;;;;;4.57;2.37;;;20.90;96.30;;;;;;4934216;29;20431;-73
2022/08/23 16:52:34;;;;;;;7.43;3.60;;;20.80;96.30;;;;;;4934325;29;20467;-73
2022/08/23 16:55:01;;;;;;;4.07;2.40;;;20.80;96.30;;;;;;4937461;29;20422;-73
2022/08/23 16:57:26;;;;;;;12.80;2.70;;;20.70;96.30;;;;;;4937886;29;20416;-73
2022/08/23 16:59:52;;;;;;;3.63;2.20;;;20.70;96.30;;;;;;4954222;29;20426;-72
2022/08/23 17:02:26;;;;;;;4.17;2.60;;;20.50;96.30;;;;;;4957394;29;20764;-75
2022/08/23 17:04:52;;;;;;;6.00;2.40;;;20.40;96.30;;;;;;4957108;29;20174;-75
2022/08/23 17:07:18;;;;;;;3.77;2.60;;;20.40;96.30;;;;;;4939801;29;20478;-75
2022/08/23 17:09:43;;;;;;;5.70;2.67;;;20.40;96.30;;;;;;4949362;28;20418;-75
2022/08/23 17:17:42;;;;;;;4.60;2.70;;;20.40;96.30;;;;;;5233790;23;20975;-74
2022/08/23 17:20:12;;;;;;;10.10;3.07;;;20.40;96.30;;;;;;4994460;28;20829;-75
2022/08/23 17:22:37;;;;;;;9.20;2.90;;;20.30;96.30;;;;;;4975854;28;20509;-75
2022/08/23 17:25:04;;;;;;;8.50;2.47;;;20.30;96.30;;;;;;4975247;28;20493;-74
2022/08/23 17:27:30;;;;;;;7.23;3.40;;;20.10;96.30;;;;;;4958176;28;20325;-73
2022/08/23 17:29:56;;;;;;;6.70;2.93;;;20.10;96.30;;;;;;4975458;28;20489;-75
2022/08/23 17:32:21;;;;;;;7.60;2.87;;;20.00;96.30;;;;;;4974608;28;20472;-74
2022/08/23 17:34:47;;;;;;;7.50;2.60;;;20.00;96.30;;;;;;4957683;28;20178;-74
2022/08/23 17:37:16;;;;;;;4.60;2.83;;;19.80;96.30;;;;;;4957741;28;20418;-74
2022/08/23 17:39:41;;;;;;;6.63;3.13;;;19.70;96.30;;;;;;4974490;28;20218;-74